sensor_id;sensor_type;location;lat;lon;timestamp;pressure;altitude;pressure_sealevel;temperature;humidity
29569;BME280;16501;51.462;14.346;2023-02-22T00:00:55;100311.94;;;6.64;100.00
29569;BME280;16501;51.462;14.346;2023-02-22T00:03:26;100316.25;;;6.65;100.00
29569;BME280;16501;51.462;14.346;2023-02-22T00:05:57;100294.63;;;6.56;100.00
29569;BME280;16501;51.462;14.346;2023-02-22T00:08:25;100310.69;;;6.65;100.00
29569;BME280;16501;51.462;14.346;2023-02-22T00:10:55;100317.50;;;6.64;100.00
29569;BME280;16501;51.462;14.346;2023-02-22T00:13:20;100278.59;;;6.47;100.00
29569;BME280;16501;51.462;14.346;2023-02-22T00:15:47;100274.13;;;6.37;100.00
29569;BME280;16501;51.462;14.346;2023-02-22T00:18:14;100312.38;;;6.62;100.00
29569;BME280;16501;51.462;14.346;2023-02-22T00:20:40;100265.97;;;6.17;100.00
29569;BME280;16501;51.462;14.346;2023-02-22T00:23:08;100294.16;;;6.32;100.00
29569;BME280;16501;51.462;14.346;2023-02-22T00:25:37;100304.09;;;6.46;100.00
29569;BME280;16501;51.462;14.346;2023-02-22T00:28:03;100299.66;;;6.48;100.00
29569;BME280;16501;51.462;14.346;2023-02-22T00:30:29;100310.47;;;6.46;100.00
29569;BME280;16501;51.462;14.346;2023-02-22T00:32:57;100319.50;;;6.50;100.00
29569;BME280;16501;51.462;14.346;2023-02-22T00:35:27;100295.63;;;6.36;100.00
29569;BME280;16501;51.462;14.346;2023-02-22T00:37:58;100302.34;;;6.52;100.00
29569;BME280;16501;51.462;14.346;2023-02-22T00:40:27;100303.09;;;6.52;100.00
29569;BME280;16501;51.462;14.346;2023-02-22T00:42:55;100307.91;;;6.52;100.00
29569;BME280;16501;51.462;14.346;2023-02-22T00:45:22;100303.09;;;6.52;100.00
29569;BME280;16501;51.462;14.346;2023-02-22T00:47:49;100294.19;;;6.45;100.00
29569;BME280;16501;51.462;14.346;2023-02-22T00:50:16;100306.88;;;6.46;100.00
29569;BME280;16501;51.462;14.346;2023-02-22T00:52:42;100309.78;;;6.42;100.00
29569;BME280;16501;51.462;14.346;2023-02-22T00:55:10;100310.47;;;6.46;100.00
29569;BME280;16501;51.462;14.346;2023-02-22T00:57:36;100270.72;;;6.16;100.00
29569;BME280;16501;51.462;14.346;2023-02-22T01:00:06;100291.03;;;6.30;100.00
29569;BME280;16501;51.462;14.346;2023-02-22T01:02:40;100297.88;;;6.41;100.00
29569;BME280;16501;51.462;14.346;2023-02-22T01:05:09;100266.84;;;6.14;100.00
29569;BME280;16501;51.462;14.346;2023-02-22T01:07:37;100295.28;;;6.34;100.00
29569;BME280;16501;51.462;14.346;2023-02-22T01:10:03;100271.00;;;6.22;100.00
29569;BME280;16501;51.462;14.346;2023-02-22T01:12:29;100283.00;;;6.19;100.00
29569;BME280;16501;51.462;14.346;2023-02-22T01:14:55;100302.19;;;6.42;100.00
29569;BME280;16501;51.462;14.346;2023-02-22T01:17:26;100297.75;;;6.45;100.00
29569;BME280;16501;51.462;14.346;2023-02-22T01:19:53;100268.75;;;6.30;100.00
29569;BME280;16501;51.462;14.346;2023-02-22T01:22:19;100268.44;;;6.28;100.00
29569;BME280;16501;51.462;14.346;2023-02-22T01:24:48;100289.63;;;6.51;100.00
29569;BME280;16501;51.462;14.346;2023-02-22T01:27:14;100297.31;;;6.47;100.00
29569;BME280;16501;51.462;14.346;2023-02-22T01:29:39;100256.97;;;6.26;100.00
29569;BME280;16501;51.462;14.346;2023-02-22T01:32:05;100286.59;;;6.45;100.00
29569;BME280;16501;51.462;14.346;2023-02-22T01:34:31;100294.53;;;6.47;100.00
29569;BME280;16501;51.462;14.346;2023-02-22T01:36:57;100250.38;;;6.19;100.00
29569;BME280;16501;51.462;14.346;2023-02-22T01:39:23;100279.25;;;6.26;100.00
29569;BME280;16501;51.462;14.346;2023-02-22T01:41:50;100286.81;;;6.38;100.00
29569;BME280;16501;51.462;14.346;2023-02-22T01:44:26;100287.59;;;6.38;100.00
29569;BME280;16501;51.462;14.346;2023-02-22T01:46:53;100278.13;;;6.36;100.00
29569;BME280;16501;51.462;14.346;2023-02-22T01:49:18;100286.81;;;6.38;100.00
29569;BME280;16501;51.462;14.346;2023-02-22T01:51:48;100259.16;;;6.05;100.00
29569;BME280;16501;51.462;14.346;2023-02-22T01:54:24;100263.41;;;6.10;100.00
29569;BME280;16501;51.462;14.346;2023-02-22T01:57:26;100288.91;;;6.21;100.00
29569;BME280;16501;51.462;14.346;2023-02-22T01:59:57;100277.09;;;6.17;100.00
29569;BME280;16501;51.462;14.346;2023-02-22T02:02:25;100284.47;;;6.23;100.00
29569;BME280;16501;51.462;14.346;2023-02-22T02:04:52;100266.50;;;6.12;100.00
29569;BME280;16501;51.462;14.346;2023-02-22T02:07:20;100275.75;;;6.21;100.00
29569;BME280;16501;51.462;14.346;2023-02-22T02:09:53;100271.44;;;6.20;100.00
29569;BME280;16501;51.462;14.346;2023-02-22T02:12:21;100261.38;;;6.10;100.00
29569;BME280;16501;51.462;14.346;2023-02-22T02:14:47;100274.97;;;6.21;100.00
29569;BME280;16501;51.462;14.346;2023-02-22T02:17:15;100284.81;;;6.26;100.00
29569;BME280;16501;51.462;14.346;2023-02-22T02:27:49;100271.44;;;6.20;100.00
29569;BME280;16501;51.462;14.346;2023-02-22T02:33:43;100221.34;;;5.62;100.00
29569;BME280;16501;51.462;14.346;2023-02-22T02:36:15;100276.50;;;6.09;100.00
29569;BME280;16501;51.462;14.346;2023-02-22T02:38:44;100274.06;;;6.11;100.00
29569;BME280;16501;51.462;14.346;2023-02-22T02:41:21;100276.50;;;6.09;100.00
29569;BME280;16501;51.462;14.346;2023-02-22T02:43:56;100276.38;;;6.00;100.00
29569;BME280;16501;51.462;14.346;2023-02-22T02:46:26;100277.16;;;6.00;100.00
29569;BME280;16501;51.462;14.346;2023-02-22T02:48:57;100285.78;;;6.06;100.00
29569;BME280;16501;51.462;14.346;2023-02-22T02:51:28;100279.28;;;6.09;100.00
29569;BME280;16501;51.462;14.346;2023-02-22T02:53:54;100278.28;;;6.03;100.00
29569;BME280;16501;51.462;14.346;2023-02-22T02:56:20;100236.56;;;5.86;100.00
29569;BME280;16501;51.462;14.346;2023-02-22T02:58:49;100270.84;;;6.13;100.00
29569;BME280;16501;51.462;14.346;2023-02-22T03:01:31;100279.19;;;6.13;100.00
29569;BME280;16501;51.462;14.346;2023-02-22T03:06:48;100259.25;;;6.01;100.00
29569;BME280;16501;51.462;14.346;2023-02-22T03:12:31;100272.31;;;6.17;100.00
29569;BME280;16501;51.462;14.346;2023-02-22T03:15:21;100252.38;;;6.06;100.00
29569;BME280;16501;51.462;14.346;2023-02-22T03:17:59;100263.28;;;6.13;100.00
29569;BME280;16501;51.462;14.346;2023-02-22T03:20:42;100262.94;;;6.11;100.00
29569;BME280;16501;51.462;14.346;2023-02-22T03:23:23;100205.38;;;5.66;100.00
29569;BME280;16501;51.462;14.346;2023-02-22T03:25:57;100277.88;;;6.17;100.00
29569;BME280;16501;51.462;14.346;2023-02-22T03:28:24;100271.63;;;6.13;100.00
29569;BME280;16501;51.462;14.346;2023-02-22T03:30:55;100253.53;;;5.92;100.00
29569;BME280;16501;51.462;14.346;2023-02-22T03:33:32;100241.59;;;5.92;100.00
29569;BME280;16501;51.462;14.346;2023-02-22T03:36:08;100256.91;;;6.00;100.00
29569;BME280;16501;51.462;14.346;2023-02-22T03:38:36;100264.03;;;6.01;100.00
29569;BME280;16501;51.462;14.346;2023-02-22T03:41:05;100270.72;;;6.16;100.00
29569;BME280;16501;51.462;14.346;2023-02-22T03:43:54;100269.19;;;6.15;100.00
29569;BME280;16501;51.462;14.346;2023-02-22T03:46:23;100262.84;;;6.15;100.00
29569;BME280;16501;51.462;14.346;2023-02-22T03:49:13;100258.47;;;6.01;100.00
29569;BME280;16501;51.462;14.346;2023-02-22T03:51:41;100258.47;;;6.01;100.00
29569;BME280;16501;51.462;14.346;2023-02-22T03:54:07;100257.66;;;6.00;100.00
29569;BME280;16501;51.462;14.346;2023-02-22T03:56:44;100260.13;;;5.98;100.00
29569;BME280;16501;51.462;14.346;2023-02-22T03:59:14;100245.88;;;5.96;100.00
29569;BME280;16501;51.462;14.346;2023-02-22T04:01:40;100261.59;;;6.03;100.00
29569;BME280;16501;51.462;14.346;2023-02-22T04:04:06;100236.56;;;5.86;100.00
29569;BME280;16501;51.462;14.346;2023-02-22T04:06:31;100255.41;;;5.95;100.00
29569;BME280;16501;51.462;14.346;2023-02-22T04:08:56;100263.25;;;6.00;100.00
29569;BME280;16501;51.462;14.346;2023-02-22T04:11:23;100266.47;;;5.99;100.00
29569;BME280;16501;51.462;14.346;2023-02-22T04:13:49;100229.66;;;5.78;100.00
29569;BME280;16501;51.462;14.346;2023-02-22T04:16:15;100241.34;;;5.86;100.00
29569;BME280;16501;51.462;14.346;2023-02-22T04:18:40;100263.69;;;5.99;100.00
29569;BME280;16501;51.462;14.346;2023-02-22T04:21:06;100258.81;;;5.86;100.00
29569;BME280;16501;51.462;14.346;2023-02-22T04:23:33;100248.25;;;5.81;100.00
29569;BME280;16501;51.462;14.346;2023-02-22T04:25:58;100212.69;;;5.60;100.00
29569;BME280;16501;51.462;14.346;2023-02-22T04:28:25;100264.50;;;5.83;100.00
29569;BME280;16501;51.462;14.346;2023-02-22T04:30:50;100254.22;;;5.96;100.00
29569;BME280;16501;51.462;14.346;2023-02-22T04:33:15;100233.22;;;5.79;100.00
29569;BME280;16501;51.462;14.346;2023-02-22T04:35:41;100244.47;;;5.88;100.00
29569;BME280;16501;51.462;14.346;2023-02-22T04:38:06;100255.00;;;5.97;100.00
29569;BME280;16501;51.462;14.346;2023-02-22T04:40:33;100277.59;;;5.99;100.00
29569;BME280;16501;51.462;14.346;2023-02-22T04:42:59;100254.56;;;5.98;100.00
29569;BME280;16501;51.462;14.346;2023-02-22T04:45:24;100237.47;;;5.83;100.00
29569;BME280;16501;51.462;14.346;2023-02-22T04:47:49;100246.81;;;5.90;100.00
29569;BME280;16501;51.462;14.346;2023-02-22T04:50:17;100238.47;;;5.90;100.00
29569;BME280;16501;51.462;14.346;2023-02-22T04:52:44;100238.25;;;5.84;100.00
29569;BME280;16501;51.462;14.346;2023-02-22T04:55:09;100240.69;;;5.82;100.00
29569;BME280;16501;51.462;14.346;2023-02-22T04:57:37;100239.31;;;5.74;100.00
29569;BME280;16501;51.462;14.346;2023-02-22T05:00:04;100214.88;;;5.52;100.00
29569;BME280;16501;51.462;14.346;2023-02-22T05:02:31;100233.84;;;5.70;100.00
29569;BME280;16501;51.462;14.346;2023-02-22T05:04:57;100207.00;;;5.34;100.00
29569;BME280;16501;51.462;14.346;2023-02-22T05:07:22;100234.06;;;5.63;100.00
29569;BME280;16501;51.462;14.346;2023-02-22T05:09:47;100236.31;;;5.68;100.00
29569;BME280;16501;51.462;14.346;2023-02-22T05:12:13;100228.41;;;5.66;100.00
29569;BME280;16501;51.462;14.346;2023-02-22T05:14:39;100214.97;;;5.48;100.00
29569;BME280;16501;51.462;14.346;2023-02-22T05:17:04;100215.31;;;5.51;100.00
29569;BME280;16501;51.462;14.346;2023-02-22T05:19:29;100238.97;;;5.72;100.00
29569;BME280;16501;51.462;14.346;2023-02-22T05:21:55;100263.94;;;5.75;100.00
29569;BME280;16501;51.462;14.346;2023-02-22T05:24:21;100242.19;;;5.70;100.00
29569;BME280;16501;51.462;14.346;2023-02-22T05:26:47;100238.00;;;5.78;100.00
29569;BME280;16501;51.462;14.346;2023-02-22T05:29:15;100235.56;;;5.80;100.00
29569;BME280;16501;51.462;14.346;2023-02-22T05:31:42;100224.28;;;5.71;100.00
29569;BME280;16501;51.462;14.346;2023-02-22T05:34:07;100232.09;;;5.76;100.00
29569;BME280;16501;51.462;14.346;2023-02-22T05:36:33;100213.25;;;5.67;100.00
29569;BME280;16501;51.462;14.346;2023-02-22T05:38:58;100203.19;;;5.57;100.00
29569;BME280;16501;51.462;14.346;2023-02-22T05:41:23;100228.53;;;5.76;100.00
29569;BME280;16501;51.462;14.346;2023-02-22T05:43:49;100229.75;;;5.75;100.00
29569;BME280;16501;51.462;14.346;2023-02-22T05:46:14;100225.41;;;5.74;100.00
29569;BME280;16501;51.462;14.346;2023-02-22T05:48:39;100223.28;;;5.65;100.00
29569;BME280;16501;51.462;14.346;2023-02-22T05:51:05;100232.09;;;5.76;100.00
29569;BME280;16501;51.462;14.346;2023-02-22T05:53:31;100241.66;;;5.75;100.00
29569;BME280;16501;51.462;14.346;2023-02-22T05:55:58;100213.44;;;5.60;100.00
29569;BME280;16501;51.462;14.346;2023-02-22T05:58:23;100233.34;;;5.59;100.00
29569;BME280;16501;51.462;14.346;2023-02-22T06:00:49;100238.19;;;5.71;100.00
29569;BME280;16501;51.462;14.346;2023-02-22T06:03:14;100219.88;;;5.57;100.00
29569;BME280;16501;51.462;14.346;2023-02-22T06:05:40;100238.78;;;5.79;100.00
29569;BME280;16501;51.462;14.346;2023-02-22T06:08:06;100242.34;;;5.79;100.00
29569;BME280;16501;51.462;14.346;2023-02-22T06:10:34;100242.78;;;5.78;100.00
29569;BME280;16501;51.462;14.346;2023-02-22T06:13:00;100181.66;;;5.32;100.00
29569;BME280;16501;51.462;14.346;2023-02-22T06:15:27;100238.28;;;5.67;100.00
29569;BME280;16501;51.462;14.346;2023-02-22T06:17:53;100235.50;;;5.67;100.00
29569;BME280;16501;51.462;14.346;2023-02-22T06:20:21;100239.63;;;5.63;100.00
29569;BME280;16501;51.462;14.346;2023-02-22T06:22:51;100235.59;;;5.64;100.00
29569;BME280;16501;51.462;14.346;2023-02-22T06:25:23;100245.19;;;5.63;100.00
29569;BME280;16501;51.462;14.346;2023-02-22T06:27:49;100259.22;;;5.72;100.00
29569;BME280;16501;51.462;14.346;2023-02-22T06:30:17;100253.66;;;5.72;100.00
29569;BME280;16501;51.462;14.346;2023-02-22T06:32:42;100253.66;;;5.72;100.00
29569;BME280;16501;51.462;14.346;2023-02-22T06:35:08;100213.19;;;5.42;100.00
29569;BME280;16501;51.462;14.346;2023-02-22T06:37:35;100260.91;;;5.70;100.00
29569;BME280;16501;51.462;14.346;2023-02-22T06:40:01;100267.91;;;5.74;100.00
29569;BME280;16501;51.462;14.346;2023-02-22T06:42:26;100266.72;;;5.75;100.00
29569;BME280;16501;51.462;14.346;2023-02-22T06:44:51;100269.59;;;5.72;100.00
29569;BME280;16501;51.462;14.346;2023-02-22T06:47:17;100272.13;;;5.66;100.00
29569;BME280;16501;51.462;14.346;2023-02-22T06:49:42;100263.59;;;5.73;100.00
29569;BME280;16501;51.462;14.346;2023-02-22T06:52:08;100275.81;;;5.76;100.00
29569;BME280;16501;51.462;14.346;2023-02-22T06:54:35;100278.16;;;5.77;100.00
29569;BME280;16501;51.462;14.346;2023-02-22T06:57:00;100271.94;;;5.73;100.00
29569;BME280;16501;51.462;14.346;2023-02-22T06:59:27;100285.97;;;5.82;100.00
29569;BME280;16501;51.462;14.346;2023-02-22T07:01:52;100223.25;;;5.36;100.00
29569;BME280;16501;51.462;14.346;2023-02-22T07:04:18;100285.66;;;5.80;100.00
29569;BME280;16501;51.462;14.346;2023-02-22T07:06:47;100290.78;;;5.82;100.00
29569;BME280;16501;51.462;14.346;2023-02-22T07:09:14;100274.53;;;5.64;100.00
29569;BME280;16501;51.462;14.346;2023-02-22T07:11:39;100218.31;;;5.27;100.00
29569;BME280;16501;51.462;14.346;2023-02-22T07:14:05;100254.25;;;5.51;100.00
29569;BME280;16501;51.462;14.346;2023-02-22T07:16:32;100261.47;;;5.48;100.00
29569;BME280;16501;51.462;14.346;2023-02-22T07:18:58;100268.84;;;5.55;100.00
29569;BME280;16501;51.462;14.346;2023-02-22T07:21:24;100297.41;;;5.72;100.00
29569;BME280;16501;51.462;14.346;2023-02-22T07:23:52;100292.72;;;5.69;100.00
29569;BME280;16501;51.462;14.346;2023-02-22T07:26:17;100277.00;;;5.62;100.00
29569;BME280;16501;51.462;14.346;2023-02-22T07:28:44;100271.44;;;5.62;100.00
29569;BME280;16501;51.462;14.346;2023-02-22T07:31:09;100277.69;;;5.66;100.00
29569;BME280;16501;51.462;14.346;2023-02-22T07:33:34;100265.63;;;5.56;100.00
29569;BME280;16501;51.462;14.346;2023-02-22T07:36:00;100280.81;;;5.68;100.00
29569;BME280;16501;51.462;14.346;2023-02-22T07:38:26;100294.97;;;5.74;100.00
29569;BME280;16501;51.462;14.346;2023-02-22T07:40:51;100299.78;;;5.86;100.00
29569;BME280;16501;51.462;14.346;2023-02-22T07:43:19;100282.16;;;5.76;100.00
29569;BME280;16501;51.462;14.346;2023-02-22T07:45:46;100267.63;;;5.56;100.00
29569;BME280;16501;51.462;14.346;2023-02-22T07:48:12;100298.84;;;5.76;100.00
29569;BME280;16501;51.462;14.346;2023-02-22T07:50:38;100295.41;;;5.72;100.00
29569;BME280;16501;51.462;14.346;2023-02-22T07:53:09;100293.16;;;5.67;100.00
29569;BME280;16501;51.462;14.346;2023-02-22T07:55:35;100298.09;;;5.76;100.00
29569;BME280;16501;51.462;14.346;2023-02-22T07:58:22;100291.75;;;5.75;100.00
29569;BME280;16501;51.462;14.346;2023-02-22T08:00:49;100297.97;;;5.79;100.00
29569;BME280;16501;51.462;14.346;2023-02-22T08:03:17;100295.91;;;5.83;100.00
29569;BME280;16501;51.462;14.346;2023-02-22T08:05:49;100300.22;;;5.84;100.00
29569;BME280;16501;51.462;14.346;2023-02-22T08:08:15;100291.88;;;5.84;100.00
29569;BME280;16501;51.462;14.346;2023-02-22T08:10:43;100302.16;;;5.88;100.00
29569;BME280;16501;51.462;14.346;2023-02-22T08:13:09;100293.78;;;5.88;100.00
29569;BME280;16501;51.462;14.346;2023-02-22T08:15:38;100300.13;;;5.88;100.00
29569;BME280;16501;51.462;14.346;2023-02-22T08:18:10;100282.34;;;5.69;100.00
29569;BME280;16501;51.462;14.346;2023-02-22T08:20:37;100301.81;;;5.85;100.00
29569;BME280;16501;51.462;14.346;2023-02-22T08:23:04;100281.50;;;5.72;100.00
29569;BME280;16501;51.462;14.346;2023-02-22T08:25:31;100303.00;;;5.84;100.00
29569;BME280;16501;51.462;14.346;2023-02-22T08:28:03;100304.59;;;5.85;100.00
29569;BME280;16501;51.462;14.346;2023-02-22T08:30:29;100291.34;;;5.90;100.00
29569;BME280;16501;51.462;14.346;2023-02-22T08:32:55;100263.22;;;5.71;100.00
29569;BME280;16501;51.462;14.346;2023-02-22T08:35:24;100290.41;;;5.96;100.00
29569;BME280;16501;51.462;14.346;2023-02-22T08:37:55;100294.38;;;5.95;100.00
29569;BME280;16501;51.462;14.346;2023-02-22T08:40:22;100269.06;;;5.77;100.00
29569;BME280;16501;51.462;14.346;2023-02-22T08:42:48;100288.91;;;5.92;100.00
29569;BME280;16501;51.462;14.346;2023-02-22T08:45:14;100291.94;;;5.97;100.00
29569;BME280;16501;51.462;14.346;2023-02-22T08:47:41;100297.06;;;5.99;100.00
29569;BME280;16501;51.462;14.346;2023-02-22T08:50:08;100291.94;;;5.97;100.00
29569;BME280;16501;51.462;14.346;2023-02-22T08:52:35;100267.19;;;5.86;100.00
29569;BME280;16501;51.462;14.346;2023-02-22T08:55:00;100290.63;;;6.02;100.00
29569;BME280;16501;51.462;14.346;2023-02-22T08:57:26;100302.91;;;6.04;100.00
29569;BME280;16501;51.462;14.346;2023-02-22T08:59:51;100291.66;;;6.08;100.00
29569;BME280;16501;51.462;14.346;2023-02-22T09:02:19;100290.97;;;6.04;100.00
29569;BME280;16501;51.462;14.346;2023-02-22T09:04:46;100296.53;;;6.04;100.00
29569;BME280;16501;51.462;14.346;2023-02-22T09:07:12;100275.19;;;5.84;100.00
29569;BME280;16501;51.462;14.346;2023-02-22T09:09:37;100294.13;;;6.06;100.00
29569;BME280;16501;51.462;14.346;2023-02-22T09:12:03;100269.75;;;5.94;100.00
29569;BME280;16501;51.462;14.346;2023-02-22T09:14:29;100293.00;;;6.16;100.00
29569;BME280;16501;51.462;14.346;2023-02-22T09:16:54;100301.56;;;6.09;100.00
29569;BME280;16501;51.462;14.346;2023-02-22T09:19:20;100295.56;;;6.11;100.00
29569;BME280;16501;51.462;14.346;2023-02-22T09:21:54;100268.03;;;6.00;100.00
29569;BME280;16501;51.462;14.346;2023-02-22T09:24:20;100295.25;;;6.21;100.00
29569;BME280;16501;51.462;14.346;2023-02-22T09:26:46;100302.28;;;6.26;100.00
29569;BME280;16501;51.462;14.346;2023-02-22T09:29:12;100274.97;;;6.08;100.00
29569;BME280;16501;51.462;14.346;2023-02-22T09:31:40;100288.13;;;6.20;100.00
29569;BME280;16501;51.462;14.346;2023-02-22T09:34:06;100266.28;;;6.06;100.00
29569;BME280;16501;51.462;14.346;2023-02-22T09:36:42;100293.69;;;6.20;100.00
29569;BME280;16501;51.462;14.346;2023-02-22T09:39:08;100297.13;;;6.12;100.00
29569;BME280;16501;51.462;14.346;2023-02-22T09:41:45;100260.78;;;6.02;100.00
29569;BME280;16501;51.462;14.346;2023-02-22T09:44:30;100294.03;;;6.22;100.00
29569;BME280;16501;51.462;14.346;2023-02-22T09:47:02;100290.38;;;6.26;100.00
29569;BME280;16501;51.462;14.346;2023-02-22T09:49:46;100261.28;;;6.14;100.00
29569;BME280;16501;51.462;14.346;2023-02-22T09:52:27;100287.47;;;6.29;100.00
29569;BME280;16501;51.462;14.346;2023-02-22T09:55:18;100276.34;;;6.29;100.00
29569;BME280;16501;51.462;14.346;2023-02-22T09:57:47;100231.63;;;6.07;100.00
29569;BME280;16501;51.462;14.346;2023-02-22T10:00:17;100257.72;;;6.26;100.00
29569;BME280;16501;51.462;14.346;2023-02-22T10:05:26;100264.44;;;6.41;100.00
29569;BME280;16501;51.462;14.346;2023-02-22T10:07:57;100262.09;;;6.40;100.00
29569;BME280;16501;51.462;14.346;2023-02-22T10:10:25;100247.69;;;6.29;100.00
29569;BME280;16501;51.462;14.346;2023-02-22T10:13:04;100266.22;;;6.48;100.00
29569;BME280;16501;51.462;14.346;2023-02-22T10:15:41;100267.44;;;6.47;100.00
29569;BME280;16501;51.462;14.346;2023-02-22T10:24:10;100266.56;;;6.50;100.00
29569;BME280;16501;51.462;14.346;2023-02-22T10:26:43;100238.47;;;6.32;100.00
29569;BME280;16501;51.462;14.346;2023-02-22T10:29:12;100259.41;;;6.49;100.00
29569;BME280;16501;51.462;14.346;2023-02-22T10:31:43;100260.88;;;6.54;100.00
29569;BME280;16501;51.462;14.346;2023-02-22T10:34:15;100258.44;;;6.43;100.00
29569;BME280;16501;51.462;14.346;2023-02-22T10:36:45;100227.22;;;6.35;100.00
29569;BME280;16501;51.462;14.346;2023-02-22T10:39:31;100260.53;;;6.65;100.00
29569;BME280;16501;51.462;14.346;2023-02-22T10:42:00;100263.09;;;6.72;100.00
29569;BME280;16501;51.462;14.346;2023-02-22T10:44:31;100247.75;;;6.67;100.00
29569;BME280;16501;51.462;14.346;2023-02-22T10:46:59;100215.66;;;6.50;100.00
29569;BME280;16501;51.462;14.346;2023-02-22T10:49:30;100270.34;;;6.82;100.00
29569;BME280;16501;51.462;14.346;2023-02-22T10:52:01;100262.97;;;6.75;100.00
29569;BME280;16501;51.462;14.346;2023-02-22T10:54:31;100250.75;;;6.73;100.00
29569;BME280;16501;51.462;14.346;2023-02-22T10:56:58;100247.63;;;6.71;100.00
29569;BME280;16501;51.462;14.346;2023-02-22T10:59:36;100232.69;;;6.52;100.00
29569;BME280;16501;51.462;14.346;2023-02-22T11:02:33;100246.72;;;6.74;100.00
29569;BME280;16501;51.462;14.346;2023-02-22T11:05:00;100236.03;;;6.72;100.00
29569;BME280;16501;51.462;14.346;2023-02-22T11:07:31;100245.28;;;6.69;100.00
29569;BME280;16501;51.462;14.346;2023-02-22T11:10:06;100229.69;;;6.59;100.00
29569;BME280;16501;51.462;14.346;2023-02-22T11:12:35;100230.34;;;6.63;100.00
29569;BME280;16501;51.462;14.346;2023-02-22T11:17:49;100232.34;;;6.75;100.00
29569;BME280;16501;51.462;14.346;2023-02-22T11:20:30;100201.59;;;6.66;100.00
29569;BME280;16501;51.462;14.346;2023-02-22T11:23:01;100238.22;;;6.90;100.00
29569;BME280;16501;51.462;14.346;2023-02-22T11:25:31;100227.75;;;6.94;100.00
29569;BME280;16501;51.462;14.346;2023-02-22T11:31:23;100220.06;;;6.86;100.00
29569;BME280;16501;51.462;14.346;2023-02-22T11:33:57;100230.19;;;6.92;100.00
29569;BME280;16501;51.462;14.346;2023-02-22T11:36:39;100224.63;;;6.92;100.00
29569;BME280;16501;51.462;14.346;2023-02-22T11:39:28;100229.31;;;6.95;100.00
29569;BME280;16501;51.462;14.346;2023-02-22T11:41:56;100221.59;;;6.99;100.00
29569;BME280;16501;51.462;14.346;2023-02-22T11:44:25;100217.47;;;6.91;100.00
29569;BME280;16501;51.462;14.346;2023-02-22T11:46:52;100219.25;;;6.98;100.00
29569;BME280;16501;51.462;14.346;2023-02-22T11:49:30;100152.56;;;6.56;100.00
29569;BME280;16501;51.462;14.346;2023-02-22T11:52:13;100217.03;;;7.06;100.00
29569;BME280;16501;51.462;14.346;2023-02-22T11:55:01;100204.03;;;6.90;100.00
29569;BME280;16501;51.462;14.346;2023-02-22T12:03:39;100207.41;;;7.07;100.00
29569;BME280;16501;51.462;14.346;2023-02-22T12:06:03;100194.28;;;6.94;100.00
29569;BME280;16501;51.462;14.346;2023-02-22T12:13:53;100212.88;;;7.10;100.00
29569;BME280;16501;51.462;14.346;2023-02-22T12:16:51;100211.19;;;7.13;100.00
29569;BME280;16501;51.462;14.346;2023-02-22T12:19:41;100212.75;;;7.14;100.00
29569;BME280;16501;51.462;14.346;2023-02-22T12:22:28;100161.22;;;6.84;100.00
29569;BME280;16501;51.462;14.346;2023-02-22T12:27:45;100194.88;;;7.24;100.00
29569;BME280;16501;51.462;14.346;2023-02-22T12:33:36;100199.81;;;7.20;100.00
29569;BME280;16501;51.462;14.346;2023-02-22T12:36:02;100167.72;;;7.03;100.00
29569;BME280;16501;51.462;14.346;2023-02-22T12:38:49;100196.00;;;7.14;100.00
29569;BME280;16501;51.462;14.346;2023-02-22T12:41:35;100197.00;;;7.20;100.00
29569;BME280;16501;51.462;14.346;2023-02-22T12:44:08;100198.59;;;7.21;100.00
29569;BME280;16501;51.462;14.346;2023-02-22T12:46:41;100208.16;;;7.20;100.00
29569;BME280;16501;51.462;14.346;2023-02-22T12:49:41;100200.56;;;7.21;100.00
29569;BME280;16501;51.462;14.346;2023-02-22T12:52:13;100188.78;;;7.16;100.00
29569;BME280;16501;51.462;14.346;2023-02-22T13:00:47;100091.19;;;6.47;100.00
29569;BME280;16501;51.462;14.346;2023-02-22T13:03:34;100192.53;;;7.23;100.00
29569;BME280;16501;51.462;14.346;2023-02-22T13:06:41;100188.06;;;7.25;100.00
29569;BME280;16501;51.462;14.346;2023-02-22T13:09:44;100188.53;;;7.24;100.00
29569;BME280;16501;51.462;14.346;2023-02-22T13:15:22;100160.47;;;7.05;100.00
29569;BME280;16501;51.462;14.346;2023-02-22T13:17:55;100176.03;;;7.28;100.00
29569;BME280;16501;51.462;14.346;2023-02-22T13:20:30;100160.00;;;7.20;100.00
29569;BME280;16501;51.462;14.346;2023-02-22T13:23:12;100179.91;;;7.31;100.00
29569;BME280;16501;51.462;14.346;2023-02-22T13:25:49;100140.50;;;7.07;100.00
29569;BME280;16501;51.462;14.346;2023-02-22T13:28:35;100136.38;;;7.11;100.00
29569;BME280;16501;51.462;14.346;2023-02-22T13:33:49;100154.94;;;7.27;100.00
29569;BME280;16501;51.462;14.346;2023-02-22T13:36:36;100165.38;;;7.36;100.00
29569;BME280;16501;51.462;14.346;2023-02-22T13:47:35;100146.50;;;7.18;100.00
29569;BME280;16501;51.462;14.346;2023-02-22T13:52:57;100169.06;;;7.33;100.00
29569;BME280;16501;51.462;14.346;2023-02-22T13:55:29;100167.72;;;7.38;100.00
29569;BME280;16501;51.462;14.346;2023-02-22T13:58:05;100169.88;;;7.33;100.00
29569;BME280;16501;51.462;14.346;2023-02-22T14:03:38;100166.50;;;7.39;100.00
29569;BME280;16501;51.462;14.346;2023-02-22T14:06:10;100161.69;;;7.39;100.00
29569;BME280;16501;51.462;14.346;2023-02-22T14:08:54;100136.88;;;7.19;100.00
29569;BME280;16501;51.462;14.346;2023-02-22T14:16:23;100147.03;;;7.48;100.00